sensor_id;sensor_type;location;lat;lon;timestamp;P1;durP1;ratioP1;P2;durP2;ratioP2
67861;SDS011;54665;51.462;6.698;2023-11-18T00:01:19;123.10;;;22.27;;
67861;SDS011;54665;51.462;6.698;2023-11-18T00:03:19;131.97;;;21.40;;
67861;SDS011;54665;51.462;6.698;2023-11-18T00:05:19;110.40;;;20.95;;
67861;SDS011;54665;51.462;6.698;2023-11-18T00:07:20;107.70;;;19.63;;
67861;SDS011;54665;51.462;6.698;2023-11-18T00:09:20;126.60;;;22.53;;
67861;SDS011;54665;51.462;6.698;2023-11-18T00:11:20;115.50;;;20.57;;
67861;SDS011;54665;51.462;6.698;2023-11-18T00:13:20;117.77;;;21.17;;
67861;SDS011;54665;51.462;6.698;2023-11-18T00:15:21;106.07;;;20.77;;
67861;SDS011;54665;51.462;6.698;2023-11-18T00:17:21;102.40;;;19.93;;
67861;SDS011;54665;51.462;6.698;2023-11-18T00:19:21;113.10;;;21.30;;
67861;SDS011;54665;51.462;6.698;2023-11-18T00:21:22;114.28;;;21.13;;
67861;SDS011;54665;51.462;6.698;2023-11-18T00:23:22;122.27;;;21.47;;
67861;SDS011;54665;51.462;6.698;2023-11-18T00:25:22;115.47;;;20.60;;
67861;SDS011;54665;51.462;6.698;2023-11-18T00:27:23;114.87;;;20.77;;
67861;SDS011;54665;51.462;6.698;2023-11-18T00:29:23;114.13;;;20.00;;
67861;SDS011;54665;51.462;6.698;2023-11-18T00:31:23;108.27;;;20.23;;
67861;SDS011;54665;51.462;6.698;2023-11-18T00:33:24;111.50;;;20.02;;
67861;SDS011;54665;51.462;6.698;2023-11-18T00:35:24;106.70;;;19.47;;
67861;SDS011;54665;51.462;6.698;2023-11-18T00:37:24;122.07;;;20.23;;
67861;SDS011;54665;51.462;6.698;2023-11-18T00:39:25;112.27;;;20.33;;
67861;SDS011;54665;51.462;6.698;2023-11-18T00:41:25;104.73;;;20.53;;
67861;SDS011;54665;51.462;6.698;2023-11-18T00:43:25;115.20;;;20.85;;
67861;SDS011;54665;51.462;6.698;2023-11-18T00:45:26;113.07;;;19.93;;
67861;SDS011;54665;51.462;6.698;2023-11-18T00:47:27;124.50;;;20.43;;
67861;SDS011;54665;51.462;6.698;2023-11-18T00:49:27;119.80;;;20.70;;
67861;SDS011;54665;51.462;6.698;2023-11-18T00:51:27;125.00;;;20.45;;
67861;SDS011;54665;51.462;6.698;2023-11-18T00:53:28;116.80;;;19.45;;
67861;SDS011;54665;51.462;6.698;2023-11-18T00:55:29;102.07;;;19.07;;
67861;SDS011;54665;51.462;6.698;2023-11-18T00:57:29;111.00;;;18.83;;
67861;SDS011;54665;51.462;6.698;2023-11-18T00:59:29;110.20;;;18.93;;
67861;SDS011;54665;51.462;6.698;2023-11-18T01:01:29;114.70;;;19.03;;
67861;SDS011;54665;51.462;6.698;2023-11-18T01:03:30;131.73;;;19.80;;
67861;SDS011;54665;51.462;6.698;2023-11-18T01:05:30;119.47;;;18.47;;
67861;SDS011;54665;51.462;6.698;2023-11-18T01:07:31;130.90;;;19.52;;
67861;SDS011;54665;51.462;6.698;2023-11-18T01:09:31;120.63;;;18.03;;
67861;SDS011;54665;51.462;6.698;2023-11-18T01:11:31;138.10;;;19.53;;
67861;SDS011;54665;51.462;6.698;2023-11-18T01:13:32;129.17;;;18.83;;
67861;SDS011;54665;51.462;6.698;2023-11-18T01:15:32;130.63;;;19.40;;
67861;SDS011;54665;51.462;6.698;2023-11-18T01:17:33;139.43;;;20.37;;
67861;SDS011;54665;51.462;6.698;2023-11-18T01:19:33;129.93;;;18.98;;
67861;SDS011;54665;51.462;6.698;2023-11-18T01:21:33;133.10;;;20.17;;
67861;SDS011;54665;51.462;6.698;2023-11-18T01:23:34;124.97;;;18.30;;
67861;SDS011;54665;51.462;6.698;2023-11-18T01:25:38;136.63;;;18.58;;
67861;SDS011;54665;51.462;6.698;2023-11-18T01:27:38;135.53;;;18.87;;
67861;SDS011;54665;51.462;6.698;2023-11-18T01:29:38;123.23;;;17.63;;
67861;SDS011;54665;51.462;6.698;2023-11-18T01:31:39;133.10;;;18.45;;
67861;SDS011;54665;51.462;6.698;2023-11-18T01:33:40;119.93;;;17.90;;
67861;SDS011;54665;51.462;6.698;2023-11-18T01:35:41;125.35;;;17.92;;
67861;SDS011;54665;51.462;6.698;2023-11-18T01:37:41;140.70;;;18.00;;
67861;SDS011;54665;51.462;6.698;2023-11-18T01:39:41;130.67;;;18.87;;
67861;SDS011;54665;51.462;6.698;2023-11-18T01:41:42;118.43;;;17.57;;
67861;SDS011;54665;51.462;6.698;2023-11-18T01:43:45;130.53;;;18.40;;
67861;SDS011;54665;51.462;6.698;2023-11-18T01:45:47;118.78;;;18.02;;
67861;SDS011;54665;51.462;6.698;2023-11-18T01:47:47;120.03;;;19.20;;
67861;SDS011;54665;51.462;6.698;2023-11-18T01:49:48;127.47;;;18.55;;
67861;SDS011;54665;51.462;6.698;2023-11-18T01:51:49;118.37;;;18.93;;
67861;SDS011;54665;51.462;6.698;2023-11-18T01:53:50;130.05;;;18.05;;
67861;SDS011;54665;51.462;6.698;2023-11-18T01:55:51;106.50;;;17.57;;
67861;SDS011;54665;51.462;6.698;2023-11-18T01:57:52;128.23;;;17.90;;
67861;SDS011;54665;51.462;6.698;2023-11-18T01:59:57;119.73;;;17.97;;
67861;SDS011;54665;51.462;6.698;2023-11-18T02:01:57;116.78;;;17.80;;
67861;SDS011;54665;51.462;6.698;2023-11-18T02:03:58;135.30;;;17.97;;
67861;SDS011;54665;51.462;6.698;2023-11-18T02:05:58;124.77;;;18.20;;
67861;SDS011;54665;51.462;6.698;2023-11-18T02:07:59;119.10;;;17.77;;
67861;SDS011;54665;51.462;6.698;2023-11-18T02:10:01;117.67;;;18.63;;
67861;SDS011;54665;51.462;6.698;2023-11-18T02:14:18;115.88;;;17.83;;
67861;SDS011;54665;51.462;6.698;2023-11-18T02:16:28;106.05;;;17.23;;
67861;SDS011;54665;51.462;6.698;2023-11-18T02:18:30;116.43;;;18.48;;
67861;SDS011;54665;51.462;6.698;2023-11-18T02:20:30;122.20;;;19.27;;
67861;SDS011;54665;51.462;6.698;2023-11-18T02:22:31;119.37;;;17.93;;
67861;SDS011;54665;51.462;6.698;2023-11-18T02:24:31;101.63;;;17.05;;
67861;SDS011;54665;51.462;6.698;2023-11-18T02:26:32;116.90;;;18.20;;
67861;SDS011;54665;51.462;6.698;2023-11-18T02:28:32;116.20;;;18.93;;
67861;SDS011;54665;51.462;6.698;2023-11-18T02:30:32;119.97;;;19.00;;
67861;SDS011;54665;51.462;6.698;2023-11-18T02:32:34;111.40;;;18.57;;
67861;SDS011;54665;51.462;6.698;2023-11-18T02:34:40;110.93;;;17.30;;
67861;SDS011;54665;51.462;6.698;2023-11-18T02:36:51;127.97;;;18.85;;
67861;SDS011;54665;51.462;6.698;2023-11-18T02:38:53;103.70;;;19.65;;
67861;SDS011;54665;51.462;6.698;2023-11-18T02:40:56;105.55;;;18.52;;
67861;SDS011;54665;51.462;6.698;2023-11-18T02:42:59;114.32;;;18.40;;
67861;SDS011;54665;51.462;6.698;2023-11-18T02:45:01;121.43;;;19.10;;
67861;SDS011;54665;51.462;6.698;2023-11-18T02:47:02;101.88;;;17.42;;
67861;SDS011;54665;51.462;6.698;2023-11-18T02:49:03;116.28;;;18.25;;
67861;SDS011;54665;51.462;6.698;2023-11-18T02:51:03;125.70;;;18.73;;
67861;SDS011;54665;51.462;6.698;2023-11-18T02:53:04;133.88;;;19.95;;
67861;SDS011;54665;51.462;6.698;2023-11-18T02:55:05;120.93;;;18.90;;
67861;SDS011;54665;51.462;6.698;2023-11-18T02:57:06;120.53;;;19.52;;
67861;SDS011;54665;51.462;6.698;2023-11-18T02:59:06;123.27;;;19.90;;
67861;SDS011;54665;51.462;6.698;2023-11-18T03:01:07;111.87;;;18.70;;
67861;SDS011;54665;51.462;6.698;2023-11-18T03:03:07;114.27;;;19.93;;
67861;SDS011;54665;51.462;6.698;2023-11-18T03:05:08;128.40;;;20.35;;
67861;SDS011;54665;51.462;6.698;2023-11-18T03:07:08;117.23;;;19.27;;
67861;SDS011;54665;51.462;6.698;2023-11-18T03:09:08;124.33;;;19.03;;
67861;SDS011;54665;51.462;6.698;2023-11-18T03:11:09;121.57;;;19.63;;
67861;SDS011;54665;51.462;6.698;2023-11-18T03:13:09;115.38;;;19.33;;
67861;SDS011;54665;51.462;6.698;2023-11-18T03:15:10;119.87;;;19.63;;
67861;SDS011;54665;51.462;6.698;2023-11-18T03:17:10;127.93;;;20.07;;
67861;SDS011;54665;51.462;6.698;2023-11-18T03:19:11;95.68;;;16.05;;
67861;SDS011;54665;51.462;6.698;2023-11-18T03:21:11;120.77;;;18.77;;
67861;SDS011;54665;51.462;6.698;2023-11-18T03:23:12;123.50;;;19.80;;
67861;SDS011;54665;51.462;6.698;2023-11-18T03:25:13;119.22;;;18.77;;
67861;SDS011;54665;51.462;6.698;2023-11-18T03:27:13;121.90;;;19.23;;
67861;SDS011;54665;51.462;6.698;2023-11-18T03:29:14;115.60;;;19.53;;
67861;SDS011;54665;51.462;6.698;2023-11-18T03:31:14;134.98;;;19.60;;
67861;SDS011;54665;51.462;6.698;2023-11-18T03:33:14;122.30;;;19.37;;
67861;SDS011;54665;51.462;6.698;2023-11-18T03:35:15;123.10;;;18.97;;
67861;SDS011;54665;51.462;6.698;2023-11-18T03:37:15;118.03;;;18.67;;
67861;SDS011;54665;51.462;6.698;2023-11-18T03:39:15;118.83;;;19.50;;
67861;SDS011;54665;51.462;6.698;2023-11-18T03:41:16;121.70;;;19.50;;
67861;SDS011;54665;51.462;6.698;2023-11-18T03:43:16;114.67;;;19.60;;
67861;SDS011;54665;51.462;6.698;2023-11-18T03:45:16;117.65;;;19.70;;
67861;SDS011;54665;51.462;6.698;2023-11-18T03:47:17;120.57;;;19.70;;
67861;SDS011;54665;51.462;6.698;2023-11-18T03:49:17;113.23;;;18.87;;
67861;SDS011;54665;51.462;6.698;2023-11-18T03:51:17;115.23;;;19.10;;
67861;SDS011;54665;51.462;6.698;2023-11-18T03:53:18;116.20;;;18.33;;
67861;SDS011;54665;51.462;6.698;2023-11-18T03:55:18;115.23;;;19.50;;
67861;SDS011;54665;51.462;6.698;2023-11-18T03:57:18;111.63;;;18.47;;
67861;SDS011;54665;51.462;6.698;2023-11-18T03:59:19;120.78;;;18.92;;
67861;SDS011;54665;51.462;6.698;2023-11-18T04:01:23;93.70;;;17.93;;
67861;SDS011;54665;51.462;6.698;2023-11-18T04:03:24;115.53;;;19.17;;
67861;SDS011;54665;51.462;6.698;2023-11-18T04:05:24;101.63;;;18.03;;
67861;SDS011;54665;51.462;6.698;2023-11-18T04:07:25;115.03;;;18.85;;
67861;SDS011;54665;51.462;6.698;2023-11-18T04:09:25;101.70;;;19.23;;
67861;SDS011;54665;51.462;6.698;2023-11-18T04:11:25;97.83;;;17.40;;
67861;SDS011;54665;51.462;6.698;2023-11-18T04:13:26;110.37;;;19.57;;
67861;SDS011;54665;51.462;6.698;2023-11-18T04:15:26;105.40;;;18.53;;
67861;SDS011;54665;51.462;6.698;2023-11-18T04:17:26;90.93;;;17.90;;
67861;SDS011;54665;51.462;6.698;2023-11-18T04:19:27;96.47;;;19.37;;
67861;SDS011;54665;51.462;6.698;2023-11-18T04:21:27;99.63;;;18.45;;
67861;SDS011;54665;51.462;6.698;2023-11-18T04:23:27;99.70;;;17.90;;
67861;SDS011;54665;51.462;6.698;2023-11-18T04:25:28;90.63;;;18.00;;
67861;SDS011;54665;51.462;6.698;2023-11-18T04:27:28;99.57;;;18.50;;
67861;SDS011;54665;51.462;6.698;2023-11-18T04:29:28;99.30;;;18.47;;
67861;SDS011;54665;51.462;6.698;2023-11-18T04:31:29;96.33;;;18.53;;
67861;SDS011;54665;51.462;6.698;2023-11-18T04:33:29;94.77;;;17.37;;
67861;SDS011;54665;51.462;6.698;2023-11-18T04:35:29;88.73;;;15.67;;
67861;SDS011;54665;51.462;6.698;2023-11-18T04:37:29;81.82;;;16.85;;
67861;SDS011;54665;51.462;6.698;2023-11-18T04:39:33;81.77;;;15.57;;
67861;SDS011;54665;51.462;6.698;2023-11-18T04:41:33;88.90;;;16.90;;
67861;SDS011;54665;51.462;6.698;2023-11-18T04:43:33;89.78;;;16.73;;
67861;SDS011;54665;51.462;6.698;2023-11-18T04:45:34;85.43;;;15.60;;
67861;SDS011;54665;51.462;6.698;2023-11-18T04:47:35;87.03;;;15.93;;
67861;SDS011;54665;51.462;6.698;2023-11-18T04:49:36;95.72;;;17.15;;
67861;SDS011;54665;51.462;6.698;2023-11-18T04:51:37;97.63;;;17.63;;
67861;SDS011;54665;51.462;6.698;2023-11-18T04:53:37;92.25;;;17.40;;
67861;SDS011;54665;51.462;6.698;2023-11-18T04:55:38;97.33;;;18.13;;
67861;SDS011;54665;51.462;6.698;2023-11-18T04:57:39;94.87;;;17.80;;
67861;SDS011;54665;51.462;6.698;2023-11-18T04:59:39;101.85;;;17.95;;
67861;SDS011;54665;51.462;6.698;2023-11-18T05:01:39;100.03;;;17.80;;
67861;SDS011;54665;51.462;6.698;2023-11-18T05:03:40;100.97;;;17.60;;
67861;SDS011;54665;51.462;6.698;2023-11-18T05:05:40;93.30;;;17.83;;
67861;SDS011;54665;51.462;6.698;2023-11-18T05:07:43;95.67;;;17.10;;
67861;SDS011;54665;51.462;6.698;2023-11-18T05:09:44;76.47;;;15.27;;
67861;SDS011;54665;51.462;6.698;2023-11-18T05:11:44;96.63;;;17.63;;
67861;SDS011;54665;51.462;6.698;2023-11-18T05:13:44;95.93;;;17.23;;
67861;SDS011;54665;51.462;6.698;2023-11-18T05:15:45;83.55;;;17.02;;
67861;SDS011;54665;51.462;6.698;2023-11-18T05:17:46;87.10;;;16.60;;
67861;SDS011;54665;51.462;6.698;2023-11-18T05:19:46;93.63;;;16.70;;
67861;SDS011;54665;51.462;6.698;2023-11-18T05:21:47;99.78;;;17.50;;
67861;SDS011;54665;51.462;6.698;2023-11-18T05:23:47;86.70;;;16.93;;
67861;SDS011;54665;51.462;6.698;2023-11-18T05:25:47;78.33;;;16.07;;
67861;SDS011;54665;51.462;6.698;2023-11-18T05:27:47;95.07;;;17.40;;
67861;SDS011;54665;51.462;6.698;2023-11-18T05:29:48;82.53;;;16.93;;
67861;SDS011;54665;51.462;6.698;2023-11-18T05:31:48;88.00;;;17.40;;
67861;SDS011;54665;51.462;6.698;2023-11-18T05:33:48;92.53;;;17.97;;
67861;SDS011;54665;51.462;6.698;2023-11-18T05:35:49;98.17;;;17.57;;
67861;SDS011;54665;51.462;6.698;2023-11-18T05:37:49;84.57;;;17.80;;
67861;SDS011;54665;51.462;6.698;2023-11-18T05:39:49;91.80;;;18.20;;
67861;SDS011;54665;51.462;6.698;2023-11-18T05:41:50;96.07;;;17.73;;
67861;SDS011;54665;51.462;6.698;2023-11-18T05:43:50;94.40;;;16.67;;
67861;SDS011;54665;51.462;6.698;2023-11-18T05:45:51;96.83;;;18.43;;
67861;SDS011;54665;51.462;6.698;2023-11-18T05:47:51;87.00;;;16.95;;
67861;SDS011;54665;51.462;6.698;2023-11-18T05:49:52;79.37;;;16.10;;
67861;SDS011;54665;51.462;6.698;2023-11-18T05:51:52;93.83;;;17.83;;
67861;SDS011;54665;51.462;6.698;2023-11-18T05:53:53;83.00;;;18.17;;
67861;SDS011;54665;51.462;6.698;2023-11-18T05:55:53;96.17;;;18.27;;
67861;SDS011;54665;51.462;6.698;2023-11-18T05:57:53;86.43;;;16.60;;
67861;SDS011;54665;51.462;6.698;2023-11-18T05:59:54;94.13;;;18.50;;
67861;SDS011;54665;51.462;6.698;2023-11-18T06:01:54;87.80;;;17.13;;
67861;SDS011;54665;51.462;6.698;2023-11-18T06:03:54;78.87;;;15.30;;
67861;SDS011;54665;51.462;6.698;2023-11-18T06:05:54;91.13;;;18.07;;
67861;SDS011;54665;51.462;6.698;2023-11-18T06:07:55;94.73;;;17.93;;
67861;SDS011;54665;51.462;6.698;2023-11-18T06:09:55;76.35;;;16.75;;
67861;SDS011;54665;51.462;6.698;2023-11-18T06:11:55;92.00;;;18.50;;
67861;SDS011;54665;51.462;6.698;2023-11-18T06:13:56;84.83;;;17.43;;
67861;SDS011;54665;51.462;6.698;2023-11-18T06:15:56;82.03;;;16.57;;
67861;SDS011;54665;51.462;6.698;2023-11-18T06:17:56;84.07;;;16.37;;
67861;SDS011;54665;51.462;6.698;2023-11-18T06:19:57;91.53;;;17.10;;
67861;SDS011;54665;51.462;6.698;2023-11-18T06:21:57;80.07;;;15.93;;
67861;SDS011;54665;51.462;6.698;2023-11-18T06:23:58;87.80;;;17.60;;
67861;SDS011;54665;51.462;6.698;2023-11-18T06:25:59;75.32;;;16.05;;
67861;SDS011;54665;51.462;6.698;2023-11-18T06:27:59;81.40;;;16.53;;
67861;SDS011;54665;51.462;6.698;2023-11-18T06:30:00;72.80;;;14.77;;
67861;SDS011;54665;51.462;6.698;2023-11-18T06:32:00;77.60;;;17.13;;
67861;SDS011;54665;51.462;6.698;2023-11-18T06:34:01;74.30;;;15.90;;
67861;SDS011;54665;51.462;6.698;2023-11-18T06:36:01;79.00;;;16.23;;
67861;SDS011;54665;51.462;6.698;2023-11-18T06:38:01;74.70;;;16.30;;
67861;SDS011;54665;51.462;6.698;2023-11-18T06:40:01;76.47;;;17.03;;
67861;SDS011;54665;51.462;6.698;2023-11-18T06:42:02;79.38;;;16.42;;
67861;SDS011;54665;51.462;6.698;2023-11-18T06:44:02;80.50;;;16.63;;
67861;SDS011;54665;51.462;6.698;2023-11-18T06:46:03;77.87;;;16.20;;
67861;SDS011;54665;51.462;6.698;2023-11-18T06:48:03;79.07;;;16.50;;
67861;SDS011;54665;51.462;6.698;2023-11-18T06:50:04;80.13;;;15.73;;
67861;SDS011;54665;51.462;6.698;2023-11-18T06:52:05;75.60;;;15.73;;
67861;SDS011;54665;51.462;6.698;2023-11-18T06:54:05;67.80;;;15.50;;
67861;SDS011;54665;51.462;6.698;2023-11-18T06:56:08;69.93;;;15.93;;
67861;SDS011;54665;51.462;6.698;2023-11-18T06:58:08;80.20;;;15.53;;
67861;SDS011;54665;51.462;6.698;2023-11-18T07:00:09;75.30;;;15.27;;
67861;SDS011;54665;51.462;6.698;2023-11-18T07:02:10;73.28;;;15.23;;
67861;SDS011;54665;51.462;6.698;2023-11-18T07:04:10;66.10;;;15.70;;
67861;SDS011;54665;51.462;6.698;2023-11-18T07:06:10;77.13;;;16.47;;
67861;SDS011;54665;51.462;6.698;2023-11-18T07:08:11;75.55;;;16.23;;
67861;SDS011;54665;51.462;6.698;2023-11-18T07:10:11;61.20;;;14.30;;
67861;SDS011;54665;51.462;6.698;2023-11-18T07:12:11;66.07;;;15.63;;
67861;SDS011;54665;51.462;6.698;2023-11-18T07:14:12;71.67;;;16.53;;
67861;SDS011;54665;51.462;6.698;2023-11-18T07:16:12;72.77;;;16.30;;
67861;SDS011;54665;51.462;6.698;2023-11-18T07:18:12;62.07;;;14.90;;
67861;SDS011;54665;51.462;6.698;2023-11-18T07:20:13;64.47;;;16.03;;
67861;SDS011;54665;51.462;6.698;2023-11-18T07:22:13;72.07;;;16.77;;
67861;SDS011;54665;51.462;6.698;2023-11-18T07:24:14;66.93;;;15.23;;
67861;SDS011;54665;51.462;6.698;2023-11-18T07:26:14;69.27;;;15.53;;
67861;SDS011;54665;51.462;6.698;2023-11-18T07:28:14;74.17;;;15.30;;
67861;SDS011;54665;51.462;6.698;2023-11-18T07:30:14;60.33;;;13.90;;
67861;SDS011;54665;51.462;6.698;2023-11-18T07:32:15;71.33;;;15.70;;
67861;SDS011;54665;51.462;6.698;2023-11-18T07:34:15;60.30;;;14.20;;
67861;SDS011;54665;51.462;6.698;2023-11-18T07:36:16;61.90;;;14.60;;
67861;SDS011;54665;51.462;6.698;2023-11-18T07:38:16;69.82;;;15.95;;
67861;SDS011;54665;51.462;6.698;2023-11-18T07:40:17;65.77;;;15.20;;
67861;SDS011;54665;51.462;6.698;2023-11-18T07:42:17;62.70;;;15.50;;
67861;SDS011;54665;51.462;6.698;2023-11-18T07:44:18;65.20;;;15.20;;
67861;SDS011;54665;51.462;6.698;2023-11-18T07:46:18;60.80;;;14.47;;
67861;SDS011;54665;51.462;6.698;2023-11-18T07:48:18;63.50;;;15.70;;
67861;SDS011;54665;51.462;6.698;2023-11-18T07:50:19;65.80;;;15.90;;
67861;SDS011;54665;51.462;6.698;2023-11-18T07:52:20;65.33;;;16.10;;
67861;SDS011;54665;51.462;6.698;2023-11-18T07:54:20;61.08;;;14.70;;
67861;SDS011;54665;51.462;6.698;2023-11-18T07:56:20;58.23;;;14.10;;
67861;SDS011;54665;51.462;6.698;2023-11-18T07:58:21;53.60;;;13.87;;
67861;SDS011;54665;51.462;6.698;2023-11-18T08:00:21;50.03;;;13.97;;
67861;SDS011;54665;51.462;6.698;2023-11-18T08:02:21;54.37;;;13.67;;
67861;SDS011;54665;51.462;6.698;2023-11-18T08:04:22;59.27;;;14.83;;
67861;SDS011;54665;51.462;6.698;2023-11-18T08:06:22;56.03;;;13.87;;
67861;SDS011;54665;51.462;6.698;2023-11-18T08:08:22;53.93;;;13.63;;
67861;SDS011;54665;51.462;6.698;2023-11-18T08:10:22;52.40;;;14.07;;
67861;SDS011;54665;51.462;6.698;2023-11-18T08:12:23;55.75;;;14.20;;
67861;SDS011;54665;51.462;6.698;2023-11-18T08:14:23;53.00;;;14.10;;
67861;SDS011;54665;51.462;6.698;2023-11-18T08:16:23;51.23;;;13.60;;
67861;SDS011;54665;51.462;6.698;2023-11-18T08:18:24;56.10;;;13.63;;
67861;SDS011;54665;51.462;6.698;2023-11-18T08:20:24;56.57;;;13.87;;
67861;SDS011;54665;51.462;6.698;2023-11-18T08:22:25;49.15;;;13.85;;
67861;SDS011;54665;51.462;6.698;2023-11-18T08:24:25;47.77;;;13.67;;
67861;SDS011;54665;51.462;6.698;2023-11-18T08:26:25;49.67;;;13.77;;
67861;SDS011;54665;51.462;6.698;2023-11-18T08:28:26;47.83;;;13.20;;
67861;SDS011;54665;51.462;6.698;2023-11-18T08:30:26;45.83;;;13.60;;
67861;SDS011;54665;51.462;6.698;2023-11-18T08:32:27;49.10;;;12.63;;
67861;SDS011;54665;51.462;6.698;2023-11-18T08:34:27;45.47;;;12.20;;
67861;SDS011;54665;51.462;6.698;2023-11-18T08:36:27;41.47;;;12.53;;
67861;SDS011;54665;51.462;6.698;2023-11-18T08:38:27;44.47;;;12.10;;
67861;SDS011;54665;51.462;6.698;2023-11-18T08:40:28;45.40;;;12.67;;
67861;SDS011;54665;51.462;6.698;2023-11-18T08:42:28;41.33;;;12.97;;
67861;SDS011;54665;51.462;6.698;2023-11-18T08:44:28;45.83;;;13.57;;
67861;SDS011;54665;51.462;6.698;2023-11-18T08:46:29;39.10;;;12.07;;
67861;SDS011;54665;51.462;6.698;2023-11-18T08:48:29;40.83;;;12.65;;
67861;SDS011;54665;51.462;6.698;2023-11-18T08:50:29;42.67;;;12.20;;
67861;SDS011;54665;51.462;6.698;2023-11-18T08:52:30;39.30;;;11.13;;
67861;SDS011;54665;51.462;6.698;2023-11-18T08:54:30;35.23;;;11.87;;
67861;SDS011;54665;51.462;6.698;2023-11-18T08:56:30;36.83;;;11.40;;
67861;SDS011;54665;51.462;6.698;2023-11-18T08:58:31;38.13;;;11.93;;
67861;SDS011;54665;51.462;6.698;2023-11-18T09:00:31;38.63;;;11.67;;
67861;SDS011;54665;51.462;6.698;2023-11-18T09:02:32;38.65;;;11.40;;
67861;SDS011;54665;51.462;6.698;2023-11-18T09:04:33;37.87;;;11.97;;
67861;SDS011;54665;51.462;6.698;2023-11-18T09:06:33;37.20;;;11.63;;
67861;SDS011;54665;51.462;6.698;2023-11-18T09:08:34;37.00;;;12.13;;
67861;SDS011;54665;51.462;6.698;2023-11-18T09:10:36;38.60;;;12.07;;
67861;SDS011;54665;51.462;6.698;2023-11-18T09:12:36;35.67;;;12.03;;
67861;SDS011;54665;51.462;6.698;2023-11-18T09:14:36;41.03;;;12.10;;
67861;SDS011;54665;51.462;6.698;2023-11-18T09:16:37;37.67;;;11.80;;
67861;SDS011;54665;51.462;6.698;2023-11-18T09:18:40;41.72;;;12.05;;
67861;SDS011;54665;51.462;6.698;2023-11-18T09:20:42;36.40;;;11.30;;
67861;SDS011;54665;51.462;6.698;2023-11-18T09:22:42;38.08;;;11.88;;
67861;SDS011;54665;51.462;6.698;2023-11-18T09:24:43;33.50;;;11.77;;
67861;SDS011;54665;51.462;6.698;2023-11-18T09:26:43;39.07;;;11.50;;
67861;SDS011;54665;51.462;6.698;2023-11-18T09:28:43;33.50;;;11.07;;
67861;SDS011;54665;51.462;6.698;2023-11-18T09:30:47;32.60;;;11.23;;
67861;SDS011;54665;51.462;6.698;2023-11-18T09:32:47;32.78;;;10.77;;
67861;SDS011;54665;51.462;6.698;2023-11-18T09:34:47;34.60;;;12.10;;
67861;SDS011;54665;51.462;6.698;2023-11-18T09:36:48;30.13;;;10.03;;
67861;SDS011;54665;51.462;6.698;2023-11-18T09:38:48;29.33;;;9.67;;
67861;SDS011;54665;51.462;6.698;2023-11-18T09:40:49;30.30;;;9.68;;
67861;SDS011;54665;51.462;6.698;2023-11-18T09:42:52;30.05;;;10.52;;
67861;SDS011;54665;51.462;6.698;2023-11-18T09:44:53;28.47;;;9.53;;
67861;SDS011;54665;51.462;6.698;2023-11-18T09:46:55;31.20;;;9.27;;
67861;SDS011;54665;51.462;6.698;2023-11-18T09:49:12;29.33;;;9.70;;
67861;SDS011;54665;51.462;6.698;2023-11-18T09:51:22;28.52;;;9.07;;
67861;SDS011;54665;51.462;6.698;2023-11-18T09:53:23;24.75;;;8.95;;
67861;SDS011;54665;51.462;6.698;2023-11-18T09:55:25;27.73;;;9.43;;
67861;SDS011;54665;51.462;6.698;2023-11-18T09:59:42;22.95;;;8.18;;
67861;SDS011;54665;51.462;6.698;2023-11-18T10:01:50;25.90;;;9.25;;
67861;SDS011;54665;51.462;6.698;2023-11-18T10:03:53;22.60;;;8.15;;
67861;SDS011;54665;51.462;6.698;2023-11-18T10:05:55;23.70;;;9.23;;
67861;SDS011;54665;51.462;6.698;2023-11-18T10:07:57;25.15;;;8.95;;
67861;SDS011;54665;51.462;6.698;2023-11-18T10:09:58;23.13;;;8.90;;
67861;SDS011;54665;51.462;6.698;2023-11-18T10:11:58;25.73;;;8.90;;
67861;SDS011;54665;51.462;6.698;2023-11-18T10:13:59;23.37;;;8.13;;
67861;SDS011;54665;51.462;6.698;2023-11-18T10:16:00;25.07;;;8.60;;
67861;SDS011;54665;51.462;6.698;2023-11-18T10:18:02;23.88;;;8.52;;
67861;SDS011;54665;51.462;6.698;2023-11-18T10:20:03;19.98;;;7.00;;
67861;SDS011;54665;51.462;6.698;2023-11-18T10:22:03;21.67;;;7.67;;
67861;SDS011;54665;51.462;6.698;2023-11-18T10:24:04;19.77;;;7.23;;
67861;SDS011;54665;51.462;6.698;2023-11-18T10:26:05;20.37;;;7.23;;
67861;SDS011;54665;51.462;6.698;2023-11-18T10:28:05;17.77;;;7.07;;
67861;SDS011;54665;51.462;6.698;2023-11-18T10:30:06;18.38;;;7.13;;
67861;SDS011;54665;51.462;6.698;2023-11-18T10:32:07;21.10;;;7.10;;
67861;SDS011;54665;51.462;6.698;2023-11-18T10:34:07;18.73;;;6.97;;
67861;SDS011;54665;51.462;6.698;2023-11-18T10:36:22;17.20;;;6.45;;
67861;SDS011;54665;51.462;6.698;2023-11-18T10:38:23;17.33;;;6.70;;
67861;SDS011;54665;51.462;6.698;2023-11-18T10:40:24;18.37;;;7.13;;
67861;SDS011;54665;51.462;6.698;2023-11-18T10:42:27;15.57;;;6.43;;
67861;SDS011;54665;51.462;6.698;2023-11-18T10:44:28;15.13;;;6.47;;
67861;SDS011;54665;51.462;6.698;2023-11-18T10:46:29;18.42;;;6.65;;
67861;SDS011;54665;51.462;6.698;2023-11-18T10:48:30;16.30;;;6.80;;
67861;SDS011;54665;51.462;6.698;2023-11-18T10:50:30;18.10;;;6.30;;
67861;SDS011;54665;51.462;6.698;2023-11-18T10:52:31;16.63;;;6.17;;
67861;SDS011;54665;51.462;6.698;2023-11-18T10:54:31;14.17;;;5.70;;
67861;SDS011;54665;51.462;6.698;2023-11-18T10:56:31;17.57;;;6.80;;
67861;SDS011;54665;51.462;6.698;2023-11-18T10:58:35;16.27;;;5.90;;
67861;SDS011;54665;51.462;6.698;2023-11-18T11:00:49;14.57;;;5.87;;
67861;SDS011;54665;51.462;6.698;2023-11-18T11:02:57;20.33;;;6.43;;
67861;SDS011;54665;51.462;6.698;2023-11-18T11:04:58;15.55;;;5.32;;
67861;SDS011;54665;51.462;6.698;2023-11-18T11:06:58;14.63;;;6.07;;
67861;SDS011;54665;51.462;6.698;2023-11-18T11:08:58;15.33;;;6.37;;
67861;SDS011;54665;51.462;6.698;2023-11-18T11:10:59;18.10;;;6.60;;
67861;SDS011;54665;51.462;6.698;2023-11-18T11:13:02;15.43;;;5.55;;
67861;SDS011;54665;51.462;6.698;2023-11-18T11:15:08;16.50;;;6.13;;
67861;SDS011;54665;51.462;6.698;2023-11-18T11:17:13;15.00;;;5.90;;
67861;SDS011;54665;51.462;6.698;2023-11-18T11:19:19;18.48;;;6.32;;
67861;SDS011;54665;51.462;6.698;2023-11-18T11:21:25;16.95;;;6.32;;
67861;SDS011;54665;51.462;6.698;2023-11-18T11:25:33;13.60;;;6.10;;
67861;SDS011;54665;51.462;6.698;2023-11-18T11:27:41;15.85;;;6.70;;
67861;SDS011;54665;51.462;6.698;2023-11-18T11:30:01;15.52;;;6.43;;
67861;SDS011;54665;51.462;6.698;2023-11-18T11:34:19;18.05;;;6.72;;
67861;SDS011;54665;51.462;6.698;2023-11-18T11:36:21;18.60;;;7.27;;
67861;SDS011;54665;51.462;6.698;2023-11-18T11:38:29;20.13;;;7.45;;
67861;SDS011;54665;51.462;6.698;2023-11-18T11:40:31;19.80;;;7.25;;
67861;SDS011;54665;51.462;6.698;2023-11-18T11:42:33;20.25;;;7.85;;
67861;SDS011;54665;51.462;6.698;2023-11-18T11:44:33;16.87;;;7.23;;
67861;SDS011;54665;51.462;6.698;2023-11-18T11:46:34;19.17;;;7.10;;
67861;SDS011;54665;51.462;6.698;2023-11-18T11:48:34;20.08;;;7.55;;
67861;SDS011;54665;51.462;6.698;2023-11-18T11:50:35;16.10;;;6.93;;
67861;SDS011;54665;51.462;6.698;2023-11-18T11:52:46;17.60;;;7.45;;
67861;SDS011;54665;51.462;6.698;2023-11-18T11:54:52;18.48;;;7.55;;